Pagina principale
METAR-TAF:

METAR-TAF

Aeroporti :

Amman, Giordania

latitudine: 31-59N, longitudine: 035-59E, altezza: 767 m

Osservazione

Il bollettino è stato emesso 19 minuti fa, alle 03:00 UTC
Vento 3 kt da est/nord-est
Temperature 19°C
Umidità 43%
Pressione 1017 hPa
Visibilità: 5000 m
foschia

METAR: OJAM 230300Z 07003KT 5000 HZ NSC 19/06 Q1017 NOSIG

Ora: 06:19 (03:19 UTC)

Previsione

Il bollettino è stato emesso 4 ore e 29 minuti fa, alle 22:50 UTC
Previsione valida dal 23 alle 00 UTC al 24 alle 06 UTC
Vento 10 kt da sud-est
Visibilità: 5000 m
foschia
Evoluzione graduale
dal 23 alle 06 UTC al 23 alle 08 UTC
Vento 10 kt da ovest/sud-ovest
Probabilità 40%
dal 23 alle 12 UTC al 23 alle 18 UTC
Vento 16 kt da ovest/sud-ovest
Visibilità: 2000 m
Scaccia polvere alto

TAF: OJAM 222250Z 2300/2406 14010KT 5000 HZ NSC BECMG 2306/2308 24010KT PROB40 2312/2318 24016KT 2000 BLDU

Osservazioni e previsioni meteorologiche di più di 4000 aeroporti (messaggi METAR e TAF).

Le stazioni disponibili sono rappresentate dai dischi gialli e rossi sulla carta.

Puntare il mouse per vedere il nome della stazione.

Clicca sopra per visualizzare le osservazioni e previsioni meteorologiche.

Per cambiare la mappa : fare clic sui pulsanti verdi con una croce nera per ingrandire, il pulsante verde con un trattino per diminuire, o sulla freccia verde per le mappe adiacenti.


METAR-TAF: